createdAt,value
2023-01-31T00:01:33.247Z,99.90
2023-01-31T00:04:02.641Z,99.90
2023-01-31T00:06:32.841Z,99.90
2023-01-31T00:09:01.000Z,99.90
2023-01-31T00:11:29.603Z,99.90
2023-01-31T00:13:57.617Z,99.90
2023-01-31T00:16:24.478Z,99.90
2023-01-31T00:18:51.411Z,99.90
2023-01-31T00:21:21.541Z,99.90
2023-01-31T00:23:49.363Z,99.90
2023-01-31T00:26:22.131Z,99.90
2023-01-31T00:28:51.459Z,99.90
2023-01-31T00:31:18.976Z,99.90
2023-01-31T00:33:48.807Z,99.90
2023-01-31T00:36:20.720Z,99.90
2023-01-31T00:38:52.357Z,99.90
2023-01-31T00:41:20.614Z,99.90
2023-01-31T00:43:47.631Z,99.90
2023-01-31T00:46:14.507Z,99.90
2023-01-31T00:48:41.330Z,99.90
2023-01-31T00:51:08.202Z,99.90
2023-01-31T00:53:35.486Z,99.90
2023-01-31T00:56:08.772Z,99.90
2023-01-31T00:58:36.775Z,99.90
2023-01-31T01:01:19.197Z,99.90
2023-01-31T01:03:46.655Z,99.90
2023-01-31T01:06:14.245Z,99.90
2023-01-31T01:08:42.204Z,99.90
2023-01-31T01:11:12.384Z,99.90
2023-01-31T01:13:40.145Z,99.90
2023-01-31T01:16:09.611Z,99.90
2023-01-31T01:18:36.900Z,99.90
2023-01-31T01:21:07.623Z,99.90
2023-01-31T01:23:34.576Z,99.90
2023-01-31T01:26:01.462Z,99.90
2023-01-31T01:28:29.142Z,99.90
2023-01-31T01:30:57.325Z,99.90
2023-01-31T01:33:24.118Z,99.90
2023-01-31T01:35:50.877Z,99.90
2023-01-31T01:38:18.492Z,99.90
2023-01-31T01:40:45.297Z,99.90
2023-01-31T01:43:12.109Z,99.90
2023-01-31T01:45:38.960Z,99.90
2023-01-31T01:48:09.203Z,99.90
2023-01-31T01:50:41.629Z,99.90
2023-01-31T01:53:18.132Z,99.90
2023-01-31T01:55:54.227Z,99.90
2023-01-31T01:58:26.961Z,99.90
2023-01-31T02:00:54.417Z,99.90
2023-01-31T02:03:21.508Z,99.90
2023-01-31T02:06:01.011Z,99.90
2023-01-31T02:08:32.961Z,99.90
2023-01-31T02:11:06.812Z,99.90
2023-01-31T02:13:34.252Z,99.90
2023-01-31T02:16:01.078Z,99.90
2023-01-31T02:18:28.885Z,99.90
2023-01-31T02:21:25.173Z,99.90
2023-01-31T02:24:19.694Z,99.90
2023-01-31T02:27:01.525Z,99.90
2023-01-31T02:29:48.742Z,99.90
2023-01-31T02:32:30.514Z,99.90
2023-01-31T02:35:15.978Z,99.90
2023-01-31T02:38:17.811Z,99.90
2023-01-31T02:40:59.156Z,99.90
2023-01-31T02:44:10.138Z,99.90
2023-01-31T02:47:02.316Z,99.90
2023-01-31T02:49:40.743Z,99.90
2023-01-31T02:52:20.479Z,99.90
2023-01-31T02:55:29.090Z,99.90
2023-01-31T02:57:59.262Z,99.90
2023-01-31T03:00:27.412Z,99.90
2023-01-31T03:02:54.211Z,99.90
2023-01-31T03:05:21.694Z,99.90
2023-01-31T03:07:52.922Z,99.90
2023-01-31T03:10:39.095Z,99.90
2023-01-31T03:13:14.886Z,99.90
2023-01-31T03:16:08.128Z,99.90
2023-01-31T03:18:49.517Z,99.90
2023-01-31T03:21:26.488Z,99.90
2023-01-31T03:23:55.673Z,99.90
2023-01-31T03:26:24.148Z,99.90
2023-01-31T03:28:57.138Z,99.90
2023-01-31T03:31:31.618Z,99.90
2023-01-31T03:34:04.097Z,99.90
2023-01-31T03:36:41.841Z,99.90
2023-01-31T03:39:15.422Z,99.90
2023-01-31T03:41:55.015Z,99.90
2023-01-31T03:44:29.145Z,99.90
2023-01-31T03:47:03.425Z,99.90
2023-01-31T03:49:32.413Z,99.90
2023-01-31T03:52:07.380Z,99.90
2023-01-31T03:54:43.122Z,99.90
2023-01-31T03:57:24.116Z,99.90
2023-01-31T03:59:55.347Z,99.90
2023-01-31T04:02:26.373Z,99.90
2023-01-31T04:05:02.622Z,99.90
2023-01-31T04:07:29.638Z,99.90
2023-01-31T04:09:56.477Z,99.90
2023-01-31T04:12:23.318Z,99.90
2023-01-31T04:14:50.108Z,99.90
2023-01-31T04:17:16.920Z,99.90
2023-01-31T04:19:43.703Z,99.90
2023-01-31T04:22:10.614Z,99.90
2023-01-31T04:24:37.428Z,99.90
2023-01-31T04:27:04.211Z,99.90
2023-01-31T04:29:31.002Z,99.90
2023-01-31T04:31:57.985Z,99.90
2023-01-31T04:34:25.001Z,99.90
2023-01-31T04:36:51.794Z,99.90
2023-01-31T04:39:18.670Z,99.90
2023-01-31T04:41:45.465Z,99.90
2023-01-31T04:44:12.674Z,99.90
2023-01-31T04:46:39.489Z,99.90
2023-01-31T04:49:06.352Z,99.90
2023-01-31T04:51:33.156Z,99.90
2023-01-31T04:54:00.242Z,99.90
2023-01-31T04:56:27.019Z,99.90
2023-01-31T04:58:53.807Z,99.90
2023-01-31T05:01:20.575Z,99.90
2023-01-31T05:03:47.367Z,99.90
2023-01-31T05:06:14.137Z,99.90
2023-01-31T05:08:41.060Z,99.90
2023-01-31T05:11:08.761Z,99.90
2023-01-31T05:13:38.830Z,99.90
2023-01-31T05:16:10.798Z,99.90
2023-01-31T05:18:39.082Z,99.90
2023-01-31T05:21:08.006Z,99.90
2023-01-31T05:23:34.942Z,99.90
2023-01-31T05:26:02.007Z,99.90
2023-01-31T05:28:28.884Z,99.90
2023-01-31T05:31:03.171Z,99.90
2023-01-31T05:33:31.840Z,99.90
2023-01-31T05:36:00.004Z,99.90
2023-01-31T05:38:27.355Z,99.90
2023-01-31T05:40:54.162Z,99.90
2023-01-31T05:43:20.951Z,99.90
2023-01-31T05:45:49.437Z,99.90
2023-01-31T05:48:16.251Z,99.90
2023-01-31T05:50:43.099Z,99.90
2023-01-31T05:53:11.107Z,99.90
2023-01-31T05:55:38.003Z,99.90
2023-01-31T05:58:04.898Z,99.90
2023-01-31T06:00:32.137Z,99.90
2023-01-31T06:02:59.904Z,99.90
2023-01-31T06:05:27.603Z,99.90
2023-01-31T06:07:54.492Z,99.90
2023-01-31T06:10:22.191Z,99.90
2023-01-31T06:12:49.248Z,99.90
2023-01-31T06:15:16.189Z,99.90
2023-01-31T06:17:43.009Z,99.90
2023-01-31T06:20:10.585Z,99.90
2023-01-31T06:22:37.436Z,99.90
2023-01-31T06:25:05.207Z,99.90
2023-01-31T06:27:33.633Z,99.90
2023-01-31T06:30:00.622Z,99.90
2023-01-31T06:32:27.519Z,99.90
2023-01-31T06:34:54.419Z,99.90
2023-01-31T06:37:21.212Z,99.90
2023-01-31T06:39:50.890Z,99.90
2023-01-31T06:42:17.677Z,99.90
2023-01-31T06:44:44.585Z,99.90
2023-01-31T06:47:13.003Z,99.90
2023-01-31T06:49:39.908Z,99.90
2023-01-31T06:52:06.805Z,99.90
2023-01-31T06:54:33.652Z,99.90
2023-01-31T06:57:00.461Z,99.90
2023-01-31T06:59:27.295Z,99.90
2023-01-31T07:01:54.664Z,99.90
2023-01-31T07:04:21.643Z,99.90
2023-01-31T07:06:48.482Z,99.90
2023-01-31T07:09:15.380Z,99.90
2023-01-31T07:11:42.253Z,99.90
2023-01-31T07:14:09.033Z,99.90
2023-01-31T07:16:38.193Z,99.90
2023-01-31T07:19:05.093Z,99.90
2023-01-31T07:21:33.393Z,99.90
2023-01-31T07:24:00.284Z,99.90
2023-01-31T07:26:27.236Z,99.90
2023-01-31T07:28:54.192Z,99.90
2023-01-31T07:31:21.341Z,99.90
2023-01-31T07:33:48.693Z,99.90
2023-01-31T07:36:19.800Z,99.90
2023-01-31T07:38:46.616Z,99.90
2023-01-31T07:41:13.678Z,99.90
2023-01-31T07:43:40.598Z,99.90
2023-01-31T07:46:11.570Z,99.90
2023-01-31T07:48:39.011Z,99.90
2023-01-31T07:51:06.995Z,99.90
2023-01-31T07:53:36.709Z,99.90
2023-01-31T07:56:12.847Z,99.90
2023-01-31T07:58:41.415Z,99.90
2023-01-31T08:01:36.822Z,99.90
2023-01-31T08:04:19.524Z,99.90
2023-01-31T08:06:49.309Z,99.90
2023-01-31T08:09:16.314Z,99.90
2023-01-31T08:11:43.190Z,99.90
2023-01-31T08:14:10.148Z,99.90
2023-01-31T08:16:37.453Z,99.90
2023-01-31T08:19:04.717Z,99.90
2023-01-31T08:21:31.779Z,99.90
2023-01-31T08:23:58.560Z,99.90
2023-01-31T08:26:25.633Z,99.90
2023-01-31T08:28:56.189Z,99.90
2023-01-31T08:31:25.488Z,98.80
2023-01-31T08:33:53.530Z,98.70
2023-01-31T08:36:24.399Z,98.70
2023-01-31T08:38:52.256Z,98.70
2023-01-31T08:41:20.662Z,99.90
2023-01-31T08:43:58.935Z,99.90
2023-01-31T08:46:30.821Z,99.90
2023-01-31T08:48:58.611Z,99.90
2023-01-31T08:51:25.803Z,99.90
2023-01-31T08:53:52.991Z,99.90
2023-01-31T08:56:21.606Z,98.70
2023-01-31T08:58:48.777Z,96.60
2023-01-31T09:01:18.122Z,95.10
2023-01-31T09:03:46.011Z,93.30
2023-01-31T09:06:20.161Z,90.10
2023-01-31T09:08:47.868Z,88.80
2023-01-31T09:11:18.975Z,86.20
2023-01-31T09:13:47.543Z,86.00
2023-01-31T09:16:15.175Z,81.60
2023-01-31T09:18:42.436Z,79.30
2023-01-31T09:21:10.784Z,80.90
2023-01-31T09:23:40.618Z,78.60
2023-01-31T09:26:09.569Z,75.80
2023-01-31T09:28:36.496Z,73.90
2023-01-31T09:31:08.417Z,73.90
2023-01-31T09:33:37.559Z,73.90
2023-01-31T09:36:07.161Z,74.00
2023-01-31T09:38:34.577Z,76.70
2023-01-31T09:41:05.866Z,76.70
2023-01-31T09:43:43.408Z,80.10
2023-01-31T09:46:17.165Z,77.70
2023-01-31T09:48:53.702Z,76.70
2023-01-31T09:51:22.547Z,77.00
2023-01-31T09:53:49.519Z,77.70
2023-01-31T09:56:22.186Z,78.60
2023-01-31T09:59:28.366Z,78.60
2023-01-31T10:02:07.054Z,81.70
2023-01-31T10:04:42.723Z,85.40
2023-01-31T10:07:20.319Z,88.30
2023-01-31T10:09:53.801Z,89.50
2023-01-31T10:12:40.466Z,91.00
2023-01-31T10:15:19.158Z,92.40
2023-01-31T10:17:52.126Z,93.50
2023-01-31T10:20:37.477Z,94.70
2023-01-31T10:23:15.699Z,95.30
2023-01-31T10:25:54.133Z,95.70
2023-01-31T10:28:48.438Z,96.10
2023-01-31T10:31:47.618Z,96.60
2023-01-31T10:34:35.121Z,96.40
2023-01-31T10:37:12.614Z,94.30
2023-01-31T10:39:46.673Z,93.50
2023-01-31T10:42:25.341Z,93.20
2023-01-31T10:44:56.440Z,94.30
2023-01-31T10:47:31.716Z,95.60
2023-01-31T10:49:58.534Z,96.40
2023-01-31T10:53:03.045Z,97.10
2023-01-31T10:55:59.228Z,97.70
2023-01-31T10:58:26.392Z,97.70
2023-01-31T11:00:53.465Z,98.10
2023-01-31T11:03:20.417Z,98.30
2023-01-31T11:05:56.151Z,98.40
2023-01-31T11:08:40.284Z,98.70
2023-01-31T11:11:13.315Z,98.80
2023-01-31T11:13:40.549Z,99.60
2023-01-31T11:16:11.535Z,99.90
2023-01-31T11:18:46.508Z,99.90
2023-01-31T11:21:23.039Z,99.90
2023-01-31T11:23:51.562Z,99.90
2023-01-31T11:26:34.846Z,99.90
2023-01-31T11:29:06.253Z,99.90
2023-01-31T11:31:40.046Z,99.90
2023-01-31T11:34:23.363Z,99.90
2023-01-31T11:36:50.948Z,99.90
2023-01-31T11:39:32.059Z,99.90
2023-01-31T11:42:13.649Z,99.90
2023-01-31T11:44:58.398Z,99.90
2023-01-31T11:47:39.337Z,99.90
2023-01-31T11:50:06.727Z,99.90
2023-01-31T11:52:35.009Z,99.90
2023-01-31T11:55:07.908Z,99.90
2023-01-31T11:57:39.728Z,99.90
2023-01-31T12:00:21.821Z,99.90
2023-01-31T12:03:01.371Z,99.90
2023-01-31T12:05:41.113Z,99.90
2023-01-31T12:08:29.122Z,99.90
2023-01-31T12:10:57.470Z,99.90
2023-01-31T12:13:25.159Z,99.90
2023-01-31T12:16:01.754Z,99.90
2023-01-31T12:18:49.632Z,99.90
2023-01-31T12:21:47.681Z,99.90
2023-01-31T12:24:39.841Z,99.90
2023-01-31T12:27:35.354Z,99.90
2023-01-31T12:30:11.537Z,99.90
2023-01-31T12:32:56.884Z,99.90
2023-01-31T12:35:29.810Z,99.90
2023-01-31T12:38:08.033Z,99.90
2023-01-31T12:40:40.515Z,99.90
2023-01-31T12:43:14.279Z,99.90
2023-01-31T12:45:57.148Z,99.90
2023-01-31T12:48:36.090Z,99.90
2023-01-31T12:51:08.633Z,99.90
2023-01-31T12:54:10.541Z,99.90
2023-01-31T12:56:55.249Z,99.90
2023-01-31T12:59:31.150Z,99.90
2023-01-31T13:02:14.056Z,99.90
2023-01-31T13:05:04.314Z,99.90
2023-01-31T13:07:37.185Z,99.90
2023-01-31T13:10:16.707Z,99.90
2023-01-31T13:12:44.144Z,99.90
2023-01-31T13:15:30.231Z,99.90
2023-01-31T13:18:04.946Z,99.90
2023-01-31T13:20:37.751Z,99.90
2023-01-31T13:23:13.392Z,99.90
2023-01-31T13:25:54.939Z,99.90
2023-01-31T13:28:44.376Z,99.90
2023-01-31T13:31:37.957Z,99.90
2023-01-31T13:34:24.286Z,99.40
2023-01-31T13:36:55.663Z,99.90
2023-01-31T13:39:28.396Z,99.90
2023-01-31T13:41:55.426Z,99.90
2023-01-31T13:44:22.205Z,99.90
2023-01-31T13:47:08.587Z,99.90
2023-01-31T13:49:47.447Z,99.90
2023-01-31T13:53:02.092Z,99.90
2023-01-31T13:55:45.455Z,99.90
2023-01-31T13:58:35.525Z,99.90
2023-01-31T14:01:08.969Z,99.90
2023-01-31T14:04:14.697Z,99.90
2023-01-31T14:06:56.581Z,99.90
2023-01-31T14:09:26.931Z,99.90
2023-01-31T14:11:56.701Z,99.90
2023-01-31T14:14:41.848Z,99.90
2023-01-31T14:17:29.196Z,99.90
2023-01-31T14:19:56.021Z,99.90
2023-01-31T14:22:37.339Z,99.90
2023-01-31T14:25:10.195Z,99.90
2023-01-31T14:27:40.152Z,99.90
2023-01-31T14:30:07.192Z,99.90
2023-01-31T14:32:44.891Z,99.90
2023-01-31T14:35:14.701Z,99.90
2023-01-31T14:38:06.142Z,99.90
2023-01-31T14:41:03.947Z,99.90
2023-01-31T14:43:58.686Z,99.90
2023-01-31T14:46:54.656Z,99.90
2023-01-31T14:49:34.965Z,99.90
2023-01-31T14:52:18.397Z,99.90
2023-01-31T14:54:45.157Z,99.90
2023-01-31T14:57:17.736Z,99.90
2023-01-31T14:59:56.493Z,99.90
2023-01-31T15:02:32.668Z,99.90
2023-01-31T15:05:11.042Z,99.90
2023-01-31T15:07:57.809Z,99.90
2023-01-31T15:11:03.518Z,99.90
2023-01-31T15:13:52.788Z,99.90
2023-01-31T15:16:28.914Z,99.90
2023-01-31T15:19:21.223Z,99.90
2023-01-31T15:21:58.851Z,99.90
2023-01-31T15:24:45.757Z,99.90
2023-01-31T15:27:31.945Z,99.90
2023-01-31T15:29:58.691Z,99.90
2023-01-31T15:32:40.740Z,99.90
2023-01-31T15:35:14.451Z,99.90
2023-01-31T15:37:42.469Z,99.90
2023-01-31T15:40:20.600Z,99.90
2023-01-31T15:42:47.551Z,99.90
2023-01-31T15:45:18.859Z,99.90
2023-01-31T15:48:07.932Z,99.90
2023-01-31T15:50:34.838Z,99.90
2023-01-31T15:53:14.289Z,99.90
2023-01-31T15:55:41.741Z,99.90
2023-01-31T15:58:17.994Z,99.90
2023-01-31T16:00:45.001Z,99.90
2023-01-31T16:03:22.125Z,99.90
2023-01-31T16:05:51.526Z,99.90
2023-01-31T16:08:21.120Z,99.90
2023-01-31T16:10:48.972Z,99.90
2023-01-31T16:13:16.387Z,99.90
2023-01-31T16:15:44.116Z,99.90
2023-01-31T16:18:12.216Z,99.90
2023-01-31T16:20:48.684Z,99.90
2023-01-31T16:23:24.523Z,99.90
2023-01-31T16:25:56.919Z,99.90
2023-01-31T16:28:24.635Z,99.90
2023-01-31T16:30:52.268Z,99.90
2023-01-31T16:33:23.933Z,99.90
2023-01-31T16:36:17.407Z,99.90
2023-01-31T16:39:00.123Z,99.90
2023-01-31T16:41:44.242Z,99.90
2023-01-31T16:44:18.396Z,99.90
2023-01-31T16:46:47.125Z,99.90
2023-01-31T16:49:20.094Z,99.90
2023-01-31T16:51:47.170Z,99.90
2023-01-31T16:54:23.749Z,99.90
2023-01-31T16:57:02.497Z,99.90
2023-01-31T16:59:35.145Z,99.90
2023-01-31T17:02:15.168Z,99.90
2023-01-31T17:04:42.875Z,99.90
2023-01-31T17:07:18.020Z,99.90
2023-01-31T17:09:46.548Z,99.90
2023-01-31T17:12:24.434Z,99.90
2023-01-31T17:14:57.276Z,99.90
2023-01-31T17:17:34.724Z,99.90
2023-01-31T17:20:01.697Z,99.90
2023-01-31T17:22:28.525Z,99.90
2023-01-31T17:24:55.351Z,99.90
2023-01-31T17:27:23.065Z,99.90
2023-01-31T17:29:50.077Z,99.90
2023-01-31T17:32:20.401Z,99.90
2023-01-31T17:34:51.021Z,99.90
2023-01-31T17:37:26.792Z,99.90
2023-01-31T17:39:58.452Z,99.90
2023-01-31T17:42:25.250Z,99.90
2023-01-31T17:44:52.070Z,99.90
2023-01-31T17:47:18.897Z,99.90
2023-01-31T17:49:45.810Z,99.90
2023-01-31T17:52:12.624Z,99.90
2023-01-31T17:54:39.517Z,99.90
2023-01-31T17:57:06.350Z,99.90
2023-01-31T17:59:33.148Z,99.90
2023-01-31T18:02:00.657Z,99.90
2023-01-31T18:04:27.530Z,99.90
2023-01-31T18:06:54.571Z,99.90
2023-01-31T18:09:21.578Z,99.90
2023-01-31T18:11:48.633Z,99.90
2023-01-31T18:14:15.683Z,99.90
2023-01-31T18:16:42.870Z,99.90
2023-01-31T18:19:11.686Z,99.90
2023-01-31T18:21:41.462Z,99.90
2023-01-31T18:24:13.752Z,99.90
2023-01-31T18:26:40.620Z,99.90
2023-01-31T18:29:07.547Z,99.90
2023-01-31T18:31:34.465Z,99.90
2023-01-31T18:34:01.386Z,99.90
2023-01-31T18:36:28.255Z,99.90
2023-01-31T18:38:55.061Z,99.90
2023-01-31T18:41:21.982Z,99.90
2023-01-31T18:43:49.564Z,99.90
2023-01-31T18:46:17.212Z,99.90
2023-01-31T18:48:44.337Z,99.90
2023-01-31T18:51:12.878Z,99.90
2023-01-31T18:53:45.601Z,99.90
2023-01-31T18:56:17.803Z,99.90
2023-01-31T18:58:45.394Z,99.90
2023-01-31T19:01:18.048Z,99.90
2023-01-31T19:03:46.907Z,99.90
2023-01-31T19:06:22.072Z,99.90
2023-01-31T19:08:50.320Z,99.90
2023-01-31T19:11:18.700Z,99.90
2023-01-31T19:13:45.898Z,99.90
2023-01-31T19:16:17.781Z,99.90
2023-01-31T19:18:45.071Z,99.90
2023-01-31T19:21:16.391Z,99.90
2023-01-31T19:23:43.708Z,99.90
2023-01-31T19:26:11.595Z,99.90
2023-01-31T19:28:39.499Z,99.90
2023-01-31T19:31:08.074Z,99.90
2023-01-31T19:33:34.917Z,99.90
2023-01-31T19:36:13.192Z,99.90
2023-01-31T19:38:40.163Z,99.90
2023-01-31T19:41:09.120Z,99.90
2023-01-31T19:43:35.972Z,99.90
2023-01-31T19:46:04.922Z,99.90
2023-01-31T19:48:32.070Z,99.90
2023-01-31T19:50:59.175Z,99.90
2023-01-31T19:53:25.956Z,99.90
2023-01-31T19:55:56.157Z,99.90
2023-01-31T19:58:30.824Z,99.90
2023-01-31T20:01:09.564Z,99.90
2023-01-31T20:03:36.721Z,99.90
2023-01-31T20:06:14.391Z,99.90
2023-01-31T20:08:41.362Z,99.90
2023-01-31T20:11:09.600Z,99.90
2023-01-31T20:13:37.301Z,99.90
2023-01-31T20:16:09.918Z,99.90
2023-01-31T20:18:38.291Z,99.90
2023-01-31T20:21:06.191Z,99.90
2023-01-31T20:23:33.356Z,99.90
2023-01-31T20:26:00.347Z,99.90
2023-01-31T20:28:27.325Z,99.90
2023-01-31T20:30:54.548Z,99.90
2023-01-31T20:33:21.521Z,99.90
2023-01-31T20:35:48.548Z,99.90
2023-01-31T20:38:18.272Z,99.90
2023-01-31T20:40:54.712Z,99.90
2023-01-31T20:43:24.035Z,99.90
2023-01-31T20:45:51.098Z,99.90
2023-01-31T20:48:18.715Z,99.90
2023-01-31T20:50:54.808Z,99.90
2023-01-31T20:53:22.129Z,99.90
2023-01-31T20:55:56.266Z,99.90
2023-01-31T20:58:23.920Z,99.90
2023-01-31T21:00:52.638Z,99.90
2023-01-31T21:03:19.429Z,99.90
2023-01-31T21:05:46.227Z,99.90
2023-01-31T21:08:13.074Z,99.90
2023-01-31T21:10:40.958Z,99.90
2023-01-31T21:13:08.959Z,99.90
2023-01-31T21:15:36.014Z,99.90
2023-01-31T21:18:02.882Z,99.90
2023-01-31T21:20:29.640Z,99.90
2023-01-31T21:22:56.434Z,99.90
2023-01-31T21:25:23.234Z,99.90
2023-01-31T21:27:50.928Z,99.90
2023-01-31T21:30:18.131Z,99.90
2023-01-31T21:32:45.007Z,99.90
2023-01-31T21:35:12.028Z,99.90
2023-01-31T21:37:38.839Z,99.90
2023-01-31T21:40:07.100Z,99.90
2023-01-31T21:42:33.993Z,99.90
2023-01-31T21:45:00.838Z,99.90
2023-01-31T21:47:29.101Z,99.90
2023-01-31T21:49:55.875Z,99.90
2023-01-31T21:52:22.722Z,99.90
2023-01-31T21:54:49.568Z,99.90
2023-01-31T21:57:16.399Z,99.90
2023-01-31T21:59:45.456Z,99.90
2023-01-31T22:02:12.308Z,99.90
2023-01-31T22:04:39.078Z,99.90
2023-01-31T22:07:05.923Z,99.90
2023-01-31T22:09:32.689Z,99.90
2023-01-31T22:11:59.508Z,99.90
2023-01-31T22:14:26.282Z,99.90
2023-01-31T22:16:53.197Z,99.90
2023-01-31T22:19:20.082Z,99.90
2023-01-31T22:21:46.871Z,99.90
2023-01-31T22:24:13.963Z,99.90
2023-01-31T22:26:43.387Z,99.90
2023-01-31T22:29:13.509Z,99.90
2023-01-31T22:31:40.569Z,99.90
2023-01-31T22:34:11.282Z,99.90
2023-01-31T22:36:38.084Z,99.90
2023-01-31T22:39:04.992Z,99.90
2023-01-31T22:41:31.919Z,99.90
2023-01-31T22:43:58.745Z,99.90
2023-01-31T22:46:28.707Z,99.90
2023-01-31T22:48:56.165Z,99.90
2023-01-31T22:51:26.181Z,99.90
2023-01-31T22:53:55.006Z,99.90
2023-01-31T22:56:27.360Z,99.90
2023-01-31T22:58:59.029Z,99.90
2023-01-31T23:01:31.425Z,99.90
2023-01-31T23:04:00.655Z,99.90
2023-01-31T23:06:28.454Z,99.90
2023-01-31T23:08:55.920Z,99.90
2023-01-31T23:11:23.789Z,99.90
2023-01-31T23:13:50.879Z,99.90
2023-01-31T23:16:21.297Z,99.90
2023-01-31T23:18:48.298Z,99.90
2023-01-31T23:21:18.128Z,99.90
2023-01-31T23:23:45.705Z,99.90
2023-01-31T23:26:13.110Z,99.90
2023-01-31T23:28:40.292Z,99.90
2023-01-31T23:31:07.314Z,99.90
2023-01-31T23:33:34.237Z,99.90
2023-01-31T23:36:01.246Z,99.90
2023-01-31T23:38:28.055Z,99.90
2023-01-31T23:40:54.974Z,99.90
2023-01-31T23:43:22.486Z,99.90
2023-01-31T23:45:49.733Z,99.90
2023-01-31T23:48:17.015Z,99.90
2023-01-31T23:50:43.902Z,99.90
2023-01-31T23:53:10.761Z,99.90
2023-01-31T23:55:37.570Z,99.90
2023-01-31T23:58:04.574Z,99.90
